createdAt,value
2022-11-08T00:02:08.979Z,2.67
2022-11-08T00:07:12.009Z,2.22
2022-11-08T00:12:14.168Z,1.90
2022-11-08T00:17:17.657Z,2.17
2022-11-08T00:22:19.908Z,2.20
2022-11-08T00:27:23.864Z,2.15
2022-11-08T00:32:26.265Z,2.85
2022-11-08T00:37:27.784Z,2.10
2022-11-08T00:42:29.294Z,2.30
2022-11-08T00:47:30.819Z,2.30
2022-11-08T00:52:32.408Z,3.13
2022-11-08T00:57:47.192Z,2.60
2022-11-08T01:02:55.422Z,2.70
2022-11-08T01:07:56.933Z,2.85
2022-11-08T01:12:58.552Z,2.90
2022-11-08T01:18:00.088Z,3.03
2022-11-08T01:23:01.858Z,2.90
2022-11-08T01:28:03.763Z,2.58
2022-11-08T01:33:06.084Z,4.03
2022-11-08T01:38:07.855Z,3.50
2022-11-08T01:43:29.562Z,3.45
2022-11-08T01:48:31.539Z,2.85
2022-11-08T01:53:33.231Z,3.15
2022-11-08T01:58:36.169Z,2.35
2022-11-08T02:03:38.823Z,2.38
2022-11-08T02:08:44.561Z,2.75
2022-11-08T02:13:46.138Z,2.60
2022-11-08T02:18:48.789Z,2.72
2022-11-08T02:24:08.137Z,2.35
2022-11-08T02:29:30.031Z,2.53
2022-11-08T02:34:49.100Z,3.45
2022-11-08T02:39:50.689Z,3.03
2022-11-08T02:44:52.216Z,3.00
2022-11-08T02:49:53.753Z,3.45
2022-11-08T02:54:55.265Z,3.25
2022-11-08T02:59:56.777Z,3.10
2022-11-08T03:04:58.301Z,3.63
2022-11-08T03:09:59.832Z,2.97
2022-11-08T03:15:01.339Z,3.13
2022-11-08T03:20:03.417Z,3.25
2022-11-08T03:25:05.336Z,2.85
2022-11-08T03:30:07.727Z,2.67
2022-11-08T03:35:09.698Z,2.25
2022-11-08T03:40:11.805Z,3.28
2022-11-08T03:45:14.225Z,2.70
2022-11-08T03:50:16.687Z,2.72
2022-11-08T03:55:20.518Z,3.22
2022-11-08T04:00:25.449Z,4.30
2022-11-08T04:05:27.969Z,4.65
2022-11-08T04:10:29.528Z,4.65
2022-11-08T04:15:31.657Z,4.85
2022-11-08T04:20:33.277Z,4.95
2022-11-08T04:25:35.379Z,6.95
2022-11-08T04:30:37.401Z,6.47
2022-11-08T04:35:38.883Z,6.00
2022-11-08T04:40:40.414Z,5.55
2022-11-08T04:45:41.974Z,4.78
2022-11-08T04:50:43.523Z,4.85
2022-11-08T04:55:45.017Z,4.40
2022-11-08T05:00:46.533Z,4.55
2022-11-08T05:05:48.046Z,4.95
2022-11-08T05:10:49.557Z,4.28
2022-11-08T05:15:51.039Z,4.25
2022-11-08T05:20:57.257Z,6.18
2022-11-08T05:25:58.751Z,5.32
2022-11-08T05:31:00.589Z,4.97
2022-11-08T05:36:14.014Z,6.78
2022-11-08T05:41:18.274Z,4.95
2022-11-08T05:46:21.521Z,4.40
2022-11-08T05:51:23.416Z,4.57
2022-11-08T05:56:25.009Z,3.50
2022-11-08T06:01:26.721Z,3.85
2022-11-08T06:06:28.355Z,3.90
2022-11-08T06:11:29.860Z,6.45
2022-11-08T06:16:31.348Z,4.28
2022-11-08T06:21:32.882Z,4.30
2022-11-08T06:26:35.194Z,2.75
2022-11-08T06:31:41.830Z,3.20
2022-11-08T06:36:44.552Z,3.00
2022-11-08T06:41:46.093Z,3.30
2022-11-08T06:46:47.667Z,3.20
2022-11-08T06:51:49.776Z,2.70
2022-11-08T06:56:51.307Z,2.72
2022-11-08T07:01:53.565Z,2.80
2022-11-08T07:06:55.743Z,2.22
2022-11-08T07:11:57.279Z,2.55
2022-11-08T07:16:58.756Z,3.47
2022-11-08T07:22:00.303Z,3.40
2022-11-08T07:27:01.863Z,2.65
2022-11-08T07:32:03.675Z,2.03
2022-11-08T07:37:05.172Z,2.03
2022-11-08T07:42:06.738Z,2.30
2022-11-08T07:47:09.850Z,1.48
2022-11-08T07:52:11.362Z,1.38
2022-11-08T07:57:12.960Z,1.63
2022-11-08T08:02:14.935Z,1.63
2022-11-08T08:07:16.520Z,1.48
2022-11-08T08:12:18.044Z,1.90
2022-11-08T08:17:19.548Z,1.70
2022-11-08T08:22:21.103Z,1.50
2022-11-08T08:27:22.694Z,1.85
2022-11-08T08:32:27.154Z,1.73
2022-11-08T08:42:33.923Z,2.17
2022-11-08T08:47:35.528Z,1.08
2022-11-08T08:52:37.038Z,2.08
2022-11-08T08:57:38.574Z,1.40
2022-11-08T09:02:42.464Z,1.30
2022-11-08T09:07:44.338Z,1.58
2022-11-08T09:12:45.864Z,1.27
2022-11-08T09:17:47.912Z,0.95
2022-11-08T09:22:50.063Z,1.38
2022-11-08T09:27:54.252Z,1.13
2022-11-08T09:33:01.341Z,1.55
2022-11-08T09:38:03.849Z,0.95
2022-11-08T09:43:32.466Z,1.17
2022-11-08T09:48:42.812Z,1.45
2022-11-08T09:53:50.161Z,1.35
2022-11-08T09:58:54.585Z,1.60
2022-11-08T10:04:00.185Z,0.93
2022-11-08T10:09:20.134Z,2.15
2022-11-08T10:15:09.309Z,1.00
2022-11-08T10:20:29.058Z,1.00
2022-11-08T10:25:38.649Z,1.45
2022-11-08T10:30:42.730Z,1.23
2022-11-08T10:35:49.540Z,1.10
2022-11-08T10:41:41.007Z,1.55
2022-11-08T10:46:45.595Z,1.10
2022-11-08T10:51:50.757Z,1.10
2022-11-08T10:56:55.364Z,1.15
2022-11-08T11:01:56.971Z,1.38
2022-11-08T11:07:34.409Z,1.00
2022-11-08T11:12:35.953Z,1.13
2022-11-08T11:17:40.077Z,1.58
2022-11-08T11:22:46.355Z,1.40
2022-11-08T11:27:59.492Z,1.40
2022-11-08T11:33:06.794Z,1.23
2022-11-08T11:38:35.743Z,1.20
2022-11-08T11:43:44.244Z,1.00
2022-11-08T11:48:49.534Z,1.15
2022-11-08T11:53:51.068Z,1.40
2022-11-08T11:59:06.393Z,1.27
2022-11-08T12:04:24.283Z,1.40
2022-11-08T12:09:40.069Z,1.52
2022-11-08T12:15:00.353Z,1.00
2022-11-08T12:20:27.540Z,1.30
2022-11-08T12:25:45.587Z,1.10
2022-11-08T12:30:56.568Z,1.20
2022-11-08T12:36:26.097Z,1.75
2022-11-08T12:41:27.624Z,1.55
2022-11-08T12:46:34.825Z,1.58
2022-11-08T12:51:48.479Z,1.45
2022-11-08T12:56:52.853Z,1.50
2022-11-08T13:01:55.417Z,1.35
2022-11-08T13:07:08.462Z,1.25
2022-11-08T13:12:22.004Z,1.50
2022-11-08T13:17:25.230Z,1.30
2022-11-08T13:22:29.669Z,1.45
2022-11-08T13:27:44.354Z,1.38
2022-11-08T13:32:54.427Z,1.83
2022-11-08T13:38:21.141Z,1.33
2022-11-08T13:43:34.778Z,1.60
2022-11-08T13:48:40.594Z,1.58
2022-11-08T13:53:45.945Z,1.70
2022-11-08T13:58:47.498Z,1.73
2022-11-08T14:03:49.012Z,1.20
2022-11-08T14:09:08.647Z,1.00
2022-11-08T14:14:28.156Z,1.15
2022-11-08T14:19:32.920Z,1.15
2022-11-08T14:24:38.193Z,0.95
2022-11-08T14:29:40.510Z,1.10
2022-11-08T14:34:42.274Z,1.33
2022-11-08T14:39:46.179Z,1.70
2022-11-08T14:44:47.894Z,1.75
2022-11-08T14:49:49.503Z,1.20
2022-11-08T14:55:01.501Z,1.83
2022-11-08T15:00:06.278Z,1.10
2022-11-08T15:05:26.928Z,1.17
2022-11-08T15:10:28.969Z,1.33
2022-11-08T15:15:33.754Z,1.33
2022-11-08T15:20:35.339Z,1.27
2022-11-08T15:25:37.158Z,1.30
2022-11-08T15:30:42.314Z,1.58
2022-11-08T15:35:47.001Z,1.42
2022-11-08T15:40:51.494Z,1.30
2022-11-08T15:45:53.590Z,1.10
2022-11-08T15:50:56.013Z,1.48
2022-11-08T15:55:59.181Z,1.20
2022-11-08T16:01:02.653Z,1.05
2022-11-08T16:06:04.299Z,1.92
2022-11-08T16:11:10.090Z,1.20
2022-11-08T16:16:14.137Z,8.47
2022-11-08T16:21:15.654Z,4.13
2022-11-08T16:26:18.144Z,6.65
2022-11-08T16:31:19.666Z,6.85
2022-11-08T16:36:23.214Z,18.33
2022-11-08T16:41:25.986Z,4.32
2022-11-08T16:46:28.724Z,2.83
2022-11-08T16:51:30.214Z,2.30
2022-11-08T16:56:31.797Z,1.17
2022-11-08T17:01:34.310Z,1.83
2022-11-08T17:06:36.036Z,1.75
2022-11-08T17:11:37.565Z,4.70
2022-11-08T17:16:39.065Z,2.00
2022-11-08T17:21:45.555Z,1.10
2022-11-08T17:26:47.455Z,1.05
2022-11-08T17:31:49.576Z,1.55
2022-11-08T17:36:51.103Z,1.45
2022-11-08T17:41:52.722Z,1.50
2022-11-08T17:46:54.253Z,1.10
2022-11-08T17:51:55.777Z,1.73
2022-11-08T17:56:57.391Z,1.48
2022-11-08T18:01:59.004Z,1.35
2022-11-08T18:07:00.661Z,1.30
2022-11-08T18:12:02.215Z,1.40
2022-11-08T18:17:03.761Z,1.42
2022-11-08T18:22:05.341Z,1.60
2022-11-08T18:27:06.856Z,2.40
2022-11-08T18:32:08.439Z,1.83
2022-11-08T18:37:09.961Z,1.30
2022-11-08T18:42:11.577Z,1.70
2022-11-08T18:47:13.080Z,1.30
2022-11-08T18:52:14.653Z,1.70
2022-11-08T18:57:16.233Z,1.13
2022-11-08T19:02:17.803Z,1.83
2022-11-08T19:07:19.373Z,1.15
2022-11-08T19:12:21.321Z,1.10
2022-11-08T19:17:22.896Z,1.40
2022-11-08T19:22:24.491Z,1.50
2022-11-08T19:27:26.004Z,1.05
2022-11-08T19:32:27.613Z,1.52
2022-11-08T19:37:29.178Z,1.63
2022-11-08T19:42:31.981Z,1.30
2022-11-08T19:47:33.509Z,1.40
2022-11-08T19:52:34.994Z,1.10
2022-11-08T19:57:36.542Z,1.30
2022-11-08T20:02:38.026Z,1.67
2022-11-08T20:07:39.546Z,1.27
2022-11-08T20:12:41.171Z,1.67
2022-11-08T20:17:42.776Z,1.38
2022-11-08T20:22:48.025Z,1.00
2022-11-08T20:27:49.924Z,1.33
2022-11-08T20:32:51.502Z,1.30
2022-11-08T20:37:56.818Z,1.40
2022-11-08T20:42:58.609Z,1.15
2022-11-08T20:48:02.675Z,1.73
2022-11-08T20:53:04.540Z,2.03
2022-11-08T20:58:08.166Z,1.15
2022-11-08T21:03:10.499Z,1.10
2022-11-08T21:08:58.501Z,1.27
2022-11-08T21:13:37.603Z,1.13
2022-11-08T21:18:39.608Z,0.98
2022-11-08T21:23:43.161Z,0.93
2022-11-08T21:28:45.777Z,1.20
2022-11-08T21:33:47.524Z,0.88
2022-11-08T21:38:49.250Z,1.23
2022-11-08T21:43:50.904Z,0.95
2022-11-08T21:48:54.922Z,1.13
2022-11-08T21:53:57.922Z,0.98
2022-11-08T21:59:00.898Z,1.25
2022-11-08T22:04:02.505Z,1.40
2022-11-08T22:09:04.187Z,1.13
2022-11-08T22:14:05.660Z,0.90
2022-11-08T22:19:07.619Z,0.98
2022-11-08T22:24:14.964Z,0.80
2022-11-08T22:29:17.259Z,0.85
2022-11-08T22:34:19.047Z,1.23
2022-11-08T22:39:22.753Z,1.02
2022-11-08T22:44:24.243Z,1.15
2022-11-08T22:49:25.725Z,1.30
2022-11-08T22:54:27.243Z,0.70
2022-11-08T22:59:28.777Z,0.85
2022-11-08T23:04:30.293Z,0.90
2022-11-08T23:09:31.806Z,0.73
2022-11-08T23:14:37.205Z,0.82
2022-11-08T23:19:39.275Z,0.70
2022-11-08T23:24:41.586Z,0.90
2022-11-08T23:29:43.161Z,0.95
2022-11-08T23:34:44.675Z,1.27
2022-11-08T23:39:46.191Z,1.40
2022-11-08T23:44:47.706Z,1.17
2022-11-08T23:49:49.251Z,1.45
2022-11-08T23:54:50.754Z,1.00
2022-11-08T23:59:52.344Z,1.20
